createdAt,value
2018-06-03T00:01:27.091Z,29.80
2018-06-03T00:03:55.111Z,28.37
2018-06-03T00:06:23.113Z,29.00
2018-06-03T00:08:51.101Z,27.77
2018-06-03T00:11:19.099Z,32.27
2018-06-03T00:13:47.844Z,30.37
2018-06-03T00:16:15.860Z,29.80
2018-06-03T00:18:44.605Z,28.70
2018-06-03T00:21:35.108Z,31.00
2018-06-03T00:24:03.104Z,29.43
2018-06-03T00:26:31.330Z,30.13
2018-06-03T00:28:59.589Z,30.27
2018-06-03T00:31:27.836Z,30.80
2018-06-03T00:33:56.073Z,30.23
2018-06-03T00:36:36.068Z,31.20
2018-06-03T00:39:04.977Z,29.70
2018-06-03T00:41:33.289Z,31.07
2018-06-03T00:44:01.480Z,30.27
2018-06-03T00:46:30.496Z,31.17
2018-06-03T00:48:58.730Z,29.93
2018-06-03T00:51:27.006Z,31.10
2018-06-03T00:53:55.241Z,30.00
2018-06-03T00:56:35.305Z,31.07
2018-06-03T00:59:03.555Z,31.47
2018-06-03T01:01:31.780Z,30.53
2018-06-03T01:04:00.021Z,30.93
2018-06-03T01:06:28.350Z,31.80
2018-06-03T01:08:56.574Z,31.53
2018-06-03T01:11:24.803Z,31.87
2018-06-03T01:13:53.808Z,30.90
2018-06-03T01:16:22.821Z,31.63
2018-06-03T01:18:51.054Z,32.20
2018-06-03T01:21:19.308Z,33.37
2018-06-03T01:23:47.557Z,32.97
2018-06-03T01:26:15.832Z,32.07
2018-06-03T01:28:44.060Z,32.37
2018-06-03T01:31:12.288Z,33.00
2018-06-03T01:33:40.541Z,34.30
2018-06-03T01:36:09.527Z,32.87
2018-06-03T01:38:38.563Z,33.53
2018-06-03T01:41:06.811Z,33.03
2018-06-03T01:43:35.058Z,32.00
2018-06-03T01:46:03.279Z,33.63
2018-06-03T01:48:31.525Z,33.47
2018-06-03T01:51:00.525Z,33.07
2018-06-03T01:53:29.547Z,32.10
2018-06-03T01:55:57.784Z,33.80
2018-06-03T01:58:26.765Z,33.30
2018-06-03T02:00:55.030Z,32.77
2018-06-03T02:03:23.271Z,34.23
2018-06-03T02:05:51.519Z,34.40
2018-06-03T02:08:20.528Z,34.07
2018-06-03T02:10:48.762Z,33.97
2018-06-03T02:13:17.025Z,34.67
2018-06-03T02:15:45.248Z,33.40
2018-06-03T02:18:13.481Z,34.23
2018-06-03T02:20:41.729Z,34.77
2018-06-03T02:23:09.977Z,33.50
2018-06-03T02:25:38.229Z,35.70
2018-06-03T02:28:07.255Z,33.50
2018-06-03T02:30:35.482Z,33.57
2018-06-03T02:33:03.735Z,34.23
2018-06-03T02:35:31.972Z,32.67
2018-06-03T02:38:01.004Z,33.67
2018-06-03T02:40:29.240Z,34.10
2018-06-03T02:42:58.244Z,32.60
2018-06-03T02:45:26.512Z,32.57
2018-06-03T02:47:54.738Z,34.77
2018-06-03T02:50:22.971Z,36.40
2018-06-03T02:52:51.216Z,34.47
2018-06-03T02:55:19.450Z,34.43
2018-06-03T02:57:47.698Z,33.73
2018-06-03T03:00:16.312Z,34.33
2018-06-03T03:02:44.520Z,35.83
2018-06-03T03:05:12.764Z,35.03
2018-06-03T03:07:40.984Z,34.80
2018-06-03T03:10:10.012Z,34.47
2018-06-03T03:12:38.237Z,36.17
2018-06-03T03:15:06.468Z,36.73
2018-06-03T03:17:34.714Z,36.10
2018-06-03T03:20:03.745Z,36.87
2018-06-03T03:22:31.987Z,35.30
2018-06-03T03:25:00.988Z,33.60
2018-06-03T03:27:29.223Z,36.17
2018-06-03T03:29:57.463Z,36.87
2018-06-03T03:32:25.699Z,36.53
2018-06-03T03:34:54.695Z,34.47
2018-06-03T03:37:23.720Z,35.33
2018-06-03T03:39:51.953Z,35.93
2018-06-03T03:42:20.195Z,36.63
2018-06-03T03:44:48.468Z,35.10
2018-06-03T03:47:16.697Z,36.63
2018-06-03T03:49:45.709Z,34.40
2018-06-03T03:52:13.967Z,37.20
2018-06-03T03:54:42.978Z,36.97
2018-06-03T03:57:11.208Z,36.87
2018-06-03T03:59:40.078Z,36.73
2018-06-03T04:02:08.303Z,36.27
2018-06-03T04:04:37.311Z,34.07
2018-06-03T04:07:34.792Z,39.03
2018-06-03T04:10:03.556Z,47.80
2018-06-03T04:12:32.130Z,37.53
2018-06-03T04:15:00.787Z,36.07
2018-06-03T04:17:29.547Z,37.30
2018-06-03T04:19:58.335Z,35.37
2018-06-03T04:22:27.070Z,34.93
2018-06-03T04:24:55.787Z,34.00
2018-06-03T04:27:24.563Z,35.73
2018-06-03T04:29:53.134Z,36.07
2018-06-03T04:32:21.777Z,34.90
2018-06-03T04:34:50.532Z,34.80
2018-06-03T04:37:19.308Z,36.07
2018-06-03T04:39:47.872Z,34.07
2018-06-03T04:43:20.163Z,33.80
2018-06-03T04:45:48.763Z,33.17
2018-06-03T04:48:17.372Z,33.90
2018-06-03T04:50:46.130Z,34.90
2018-06-03T04:53:14.822Z,34.70
2018-06-03T04:55:43.503Z,33.67
2018-06-03T04:58:12.059Z,33.17
2018-06-03T05:00:40.737Z,33.60
2018-06-03T05:03:09.463Z,32.90
2018-06-03T05:05:38.248Z,33.23
2018-06-03T05:08:06.989Z,32.23
2018-06-03T05:10:35.749Z,32.93
2018-06-03T05:13:04.534Z,32.50
2018-06-03T05:15:33.334Z,32.37
2018-06-03T05:18:02.079Z,30.90
2018-06-03T05:20:30.885Z,34.10
2018-06-03T05:23:00.440Z,34.53
2018-06-03T05:25:29.235Z,33.40
2018-06-03T05:27:57.995Z,33.17
2018-06-03T05:30:26.764Z,32.03
2018-06-03T05:32:55.542Z,32.67
2018-06-03T05:35:24.123Z,31.13
2018-06-03T05:37:52.741Z,33.47
2018-06-03T05:40:21.479Z,33.27
2018-06-03T05:42:50.283Z,33.67
2018-06-03T05:45:18.851Z,33.17
2018-06-03T05:47:47.461Z,30.77
2018-06-03T05:50:16.269Z,31.87
2018-06-03T05:52:45.007Z,33.10
2018-06-03T05:55:13.861Z,32.43
2018-06-03T05:57:42.688Z,31.47
2018-06-03T06:00:11.486Z,31.27
2018-06-03T06:02:40.252Z,31.50
2018-06-03T06:05:09.052Z,31.23
2018-06-03T06:07:37.895Z,29.97
2018-06-03T06:10:06.649Z,30.03
2018-06-03T06:12:35.242Z,30.67
2018-06-03T06:15:03.934Z,30.50
2018-06-03T06:17:32.772Z,29.63
2018-06-03T06:20:01.518Z,32.00
2018-06-03T06:22:30.274Z,29.97
2018-06-03T06:24:59.059Z,29.57
2018-06-03T06:27:27.802Z,30.70
2018-06-03T06:29:56.594Z,30.20
2018-06-03T06:32:25.353Z,30.40
2018-06-03T06:34:54.142Z,31.00
2018-06-03T06:37:22.904Z,29.83
2018-06-03T06:39:51.671Z,30.43
2018-06-03T06:42:20.437Z,30.50
2018-06-03T06:44:49.380Z,31.73
2018-06-03T06:47:18.015Z,30.23
2018-06-03T06:49:46.701Z,30.63
2018-06-03T06:52:15.480Z,29.30
2018-06-03T06:54:44.260Z,30.67
2018-06-03T06:57:12.998Z,32.63
2018-06-03T06:59:41.744Z,32.47
2018-06-03T07:02:10.472Z,29.60
2018-06-03T07:04:39.418Z,31.80
2018-06-03T07:07:08.154Z,31.87
2018-06-03T07:09:37.000Z,31.90
2018-06-03T07:12:05.764Z,31.20
2018-06-03T07:14:34.467Z,30.10
2018-06-03T07:17:03.065Z,31.73
2018-06-03T07:19:31.845Z,30.63
2018-06-03T07:22:00.716Z,30.77
2018-06-03T07:24:29.313Z,32.33
2018-06-03T07:26:57.777Z,32.10
2018-06-03T07:29:26.491Z,33.50
2018-06-03T07:31:55.282Z,32.83
2018-06-03T07:34:24.040Z,31.50
2018-06-03T07:36:52.853Z,31.30
2018-06-03T07:39:21.662Z,31.53
2018-06-03T07:41:50.519Z,30.93
2018-06-03T07:44:19.096Z,31.33
2018-06-03T07:46:47.814Z,31.87
2018-06-03T07:49:16.684Z,32.83
2018-06-03T07:51:45.383Z,32.40
2018-06-03T07:54:14.013Z,35.40
2018-06-03T07:56:42.961Z,33.57
2018-06-03T07:59:11.820Z,33.47
2018-06-03T08:01:40.560Z,34.97
2018-06-03T08:04:09.479Z,34.67
2018-06-03T08:06:38.299Z,34.80
2018-06-03T08:09:07.760Z,34.43
2018-06-03T08:11:36.609Z,35.30
2018-06-03T08:14:05.425Z,32.97
2018-06-03T08:16:34.176Z,33.67
2018-06-03T08:19:02.940Z,34.63
2018-06-03T08:21:31.669Z,33.30
2018-06-03T08:24:00.401Z,33.33
2018-06-03T08:26:29.214Z,34.73
2018-06-03T08:28:57.960Z,32.80
2018-06-03T08:31:26.741Z,29.87
2018-06-03T08:33:55.676Z,31.80
2018-06-03T08:36:24.492Z,31.60
2018-06-03T08:38:53.242Z,31.77
2018-06-03T08:41:21.988Z,31.70
2018-06-03T08:43:50.753Z,30.30
2018-06-03T08:46:19.521Z,30.07
2018-06-03T08:48:48.262Z,31.63
2018-06-03T08:51:17.052Z,30.10
2018-06-03T08:53:45.916Z,34.17
2018-06-03T08:56:14.698Z,34.23
2018-06-03T08:58:43.524Z,33.73
2018-06-03T09:01:12.311Z,31.63
2018-06-03T09:03:41.047Z,34.60
2018-06-03T09:06:09.817Z,33.40
2018-06-03T09:08:38.621Z,35.17
2018-06-03T09:11:07.364Z,35.33
2018-06-03T09:13:36.127Z,36.10
2018-06-03T09:16:04.710Z,33.43
2018-06-03T09:18:33.367Z,34.80
2018-06-03T09:21:02.000Z,34.80
2018-06-03T09:23:30.782Z,34.93
2018-06-03T09:25:59.574Z,35.13
2018-06-03T09:28:28.369Z,37.20
2018-06-03T09:31:02.716Z,37.67
2018-06-03T09:33:31.567Z,36.47
2018-06-03T09:36:00.504Z,36.60
2018-06-03T09:38:31.050Z,35.57
2018-06-03T09:40:59.815Z,35.37
2018-06-03T09:43:28.632Z,33.97
2018-06-03T09:45:57.483Z,32.90
2018-06-03T09:48:26.289Z,32.83
2018-06-03T09:50:55.091Z,32.77
2018-06-03T09:53:23.837Z,35.47
2018-06-03T09:55:52.711Z,33.87
2018-06-03T09:58:21.517Z,32.57
2018-06-03T10:00:50.342Z,34.37
2018-06-03T10:03:19.073Z,30.70
2018-06-03T10:05:47.865Z,30.53
2018-06-03T10:08:16.601Z,28.50
2018-06-03T10:10:45.442Z,27.57
2018-06-03T10:13:14.221Z,24.87
2018-06-03T10:15:42.989Z,27.30
2018-06-03T10:18:12.367Z,23.80
2018-06-03T10:20:41.137Z,22.33
2018-06-03T10:23:09.910Z,24.43
2018-06-03T10:25:38.673Z,22.00
2018-06-03T10:28:07.421Z,22.67
2018-06-03T10:30:36.214Z,22.23
2018-06-03T10:33:05.265Z,20.37
2018-06-03T10:35:34.211Z,20.43
2018-06-03T10:38:02.923Z,21.43
2018-06-03T10:40:31.706Z,21.60
2018-06-03T10:43:00.275Z,20.63
2018-06-03T10:45:28.927Z,20.27
2018-06-03T10:47:57.667Z,20.73
2018-06-03T10:50:26.351Z,21.40
2018-06-03T10:52:54.966Z,21.30
2018-06-03T10:55:23.907Z,22.23
2018-06-03T10:57:52.598Z,19.97
2018-06-03T11:00:21.391Z,19.03
2018-06-03T11:02:50.182Z,19.27
2018-06-03T11:05:18.936Z,18.80
2018-06-03T11:07:47.729Z,19.23
2018-06-03T11:10:16.474Z,19.93
2018-06-03T11:12:45.233Z,21.97
2018-06-03T11:15:14.025Z,22.03
2018-06-03T11:17:42.629Z,22.20
2018-06-03T11:20:11.314Z,21.80
2018-06-03T11:22:40.123Z,23.70
2018-06-03T11:25:08.968Z,23.27
2018-06-03T11:30:12.973Z,23.70
2018-06-03T11:32:41.753Z,23.00
2018-06-03T11:35:10.523Z,23.70
2018-06-03T11:37:39.438Z,23.50
2018-06-03T11:40:08.224Z,24.00
2018-06-03T11:42:36.990Z,23.87
2018-06-03T11:45:05.783Z,20.43
2018-06-03T11:47:34.576Z,19.87
2018-06-03T11:50:03.350Z,21.50
2018-06-03T11:52:32.140Z,19.50
2018-06-03T11:55:00.932Z,18.70
2018-06-03T11:57:41.445Z,18.50
2018-06-03T12:00:10.204Z,18.60
2018-06-03T12:02:39.061Z,16.00
2018-06-03T12:05:07.817Z,17.47
2018-06-03T12:07:36.579Z,18.90
2018-06-03T12:10:05.459Z,18.37
2018-06-03T12:12:34.200Z,17.33
2018-06-03T12:15:03.277Z,18.40
2018-06-03T12:17:31.985Z,20.13
2018-06-03T12:20:00.849Z,18.23
2018-06-03T12:22:29.592Z,17.20
2018-06-03T12:24:58.366Z,16.73
2018-06-03T12:27:27.156Z,16.73
2018-06-03T12:29:55.989Z,17.97
2018-06-03T12:32:24.735Z,15.63
2018-06-03T12:34:53.496Z,16.93
2018-06-03T12:37:22.112Z,16.97
2018-06-03T12:39:50.656Z,16.73
2018-06-03T12:42:19.426Z,15.80
2018-06-03T12:44:48.214Z,15.90
2018-06-03T12:47:16.996Z,13.67
2018-06-03T12:49:45.831Z,13.53
2018-06-03T12:52:14.595Z,12.83
2018-06-03T12:54:43.344Z,15.00
2018-06-03T12:57:12.176Z,13.93
2018-06-03T12:59:40.953Z,13.10
2018-06-03T13:02:09.780Z,12.60
2018-06-03T13:04:38.520Z,12.37
2018-06-03T13:07:07.161Z,11.83
2018-06-03T13:09:35.952Z,11.30
2018-06-03T13:12:04.749Z,12.00
2018-06-03T13:14:33.500Z,14.17
2018-06-03T13:17:02.318Z,12.07
2018-06-03T13:19:31.750Z,12.30
2018-06-03T13:22:00.600Z,11.57
2018-06-03T13:24:29.272Z,11.60
2018-06-03T13:26:57.919Z,10.83
2018-06-03T13:29:26.678Z,9.77
2018-06-03T13:31:55.448Z,8.27
2018-06-03T13:34:24.076Z,8.90
2018-06-03T13:36:52.523Z,8.60
2018-06-03T13:39:21.170Z,7.77
2018-06-03T13:41:49.909Z,8.93
2018-06-03T13:44:18.712Z,8.27
2018-06-03T13:46:47.278Z,8.37
2018-06-03T13:49:15.836Z,8.30
2018-06-03T13:51:44.452Z,8.33
2018-06-03T13:54:13.293Z,8.77
2018-06-03T13:56:42.043Z,7.90
2018-06-03T13:59:10.837Z,8.33
2018-06-03T14:01:39.578Z,8.50
2018-06-03T14:04:08.331Z,8.73
2018-06-03T14:06:37.088Z,8.00
2018-06-03T14:09:06.631Z,6.70
2018-06-03T14:11:35.995Z,6.70
2018-06-03T14:14:04.840Z,6.30
2018-06-03T14:16:33.576Z,9.33
2018-06-03T14:19:02.344Z,10.40
2018-06-03T14:21:30.980Z,7.00
2018-06-03T14:23:59.599Z,9.83
2018-06-03T14:26:28.365Z,7.40
2018-06-03T14:28:57.220Z,6.83
2018-06-03T14:31:25.995Z,7.47
2018-06-03T14:33:54.754Z,7.20
2018-06-03T14:36:23.364Z,7.50
2018-06-03T14:38:51.859Z,8.03
2018-06-03T14:41:20.531Z,7.67
2018-06-03T14:43:49.299Z,7.90
2018-06-03T14:46:17.837Z,8.37
2018-06-03T14:48:46.590Z,7.87
2018-06-03T14:51:15.445Z,8.30
2018-06-03T14:53:44.201Z,8.30
2018-06-03T14:56:13.015Z,11.63
2018-06-03T14:58:41.788Z,8.13
2018-06-03T15:01:10.406Z,9.40
2018-06-03T15:03:39.139Z,9.53
2018-06-03T15:06:07.752Z,10.33
2018-06-03T15:08:36.235Z,7.80
2018-06-03T15:11:04.694Z,7.93
2018-06-03T15:13:33.318Z,7.57
2018-06-03T15:16:02.073Z,8.37
2018-06-03T15:18:30.782Z,8.03
2018-06-03T15:20:59.450Z,7.97
2018-06-03T15:23:28.247Z,7.73
2018-06-03T15:25:57.087Z,8.73
2018-06-03T15:28:25.998Z,8.50
2018-06-03T15:30:54.827Z,10.20
2018-06-03T15:33:23.624Z,10.20
2018-06-03T15:35:52.362Z,9.60
2018-06-03T15:38:21.248Z,10.17
2018-06-03T15:40:50.157Z,11.00
2018-06-03T15:43:18.926Z,10.90
2018-06-03T15:45:47.739Z,9.93
2018-06-03T15:48:16.569Z,10.60
2018-06-03T15:50:45.440Z,11.87
2018-06-03T15:53:14.275Z,11.77
2018-06-03T15:55:43.065Z,10.60
2018-06-03T15:58:11.832Z,11.17
2018-06-03T16:00:40.597Z,10.50
2018-06-03T16:03:09.493Z,11.07
2018-06-03T16:05:38.240Z,13.33
2018-06-03T16:08:06.839Z,12.87
2018-06-03T16:10:35.480Z,12.57
2018-06-03T16:13:04.233Z,12.30
2018-06-03T16:15:33.104Z,12.13
2018-06-03T16:18:01.888Z,12.13
2018-06-03T16:20:30.683Z,13.33
2018-06-03T16:22:59.448Z,13.10
2018-06-03T16:25:28.057Z,12.77
2018-06-03T16:27:56.797Z,12.83
2018-06-03T16:30:25.671Z,12.47
2018-06-03T16:32:54.422Z,11.43
2018-06-03T16:35:23.371Z,12.70
2018-06-03T16:37:52.067Z,11.73
2018-06-03T16:40:20.749Z,12.70
2018-06-03T16:42:49.398Z,12.70
2018-06-03T16:45:18.089Z,11.87
2018-06-03T16:47:46.896Z,14.10
2018-06-03T16:50:15.642Z,12.87
2018-06-03T16:52:44.425Z,11.63
2018-06-03T16:55:13.255Z,12.67
2018-06-03T16:57:42.003Z,11.83
2018-06-03T17:00:10.777Z,11.20
2018-06-03T17:02:39.621Z,11.73
2018-06-03T17:05:08.435Z,11.50
2018-06-03T17:07:37.341Z,12.10
2018-06-03T17:10:06.803Z,11.67
2018-06-03T17:12:35.532Z,11.43
2018-06-03T17:15:04.321Z,12.17
2018-06-03T17:17:33.112Z,10.67
2018-06-03T17:20:01.951Z,16.57
2018-06-03T17:22:30.755Z,12.10
2018-06-03T17:24:59.519Z,11.33
2018-06-03T17:27:28.308Z,14.87
2018-06-03T17:29:57.141Z,14.17
2018-06-03T17:32:25.952Z,14.97
2018-06-03T17:34:54.702Z,12.50
2018-06-03T17:37:23.292Z,12.17
2018-06-03T17:39:51.979Z,13.13
2018-06-03T17:42:20.630Z,15.90
2018-06-03T17:44:49.236Z,12.97
2018-06-03T17:47:17.992Z,18.97
2018-06-03T17:49:46.803Z,15.90
2018-06-03T17:52:15.599Z,12.33
2018-06-03T17:54:44.365Z,12.17
2018-06-03T17:57:13.108Z,11.33
2018-06-03T17:59:41.970Z,11.73
2018-06-03T18:02:10.735Z,11.53
2018-06-03T18:04:39.540Z,11.23
2018-06-03T18:07:08.313Z,10.67
2018-06-03T18:09:37.108Z,10.73
2018-06-03T18:12:05.876Z,9.87
2018-06-03T18:14:34.661Z,10.80
2018-06-03T18:17:03.508Z,9.93
2018-06-03T18:19:32.207Z,13.73
2018-06-03T18:22:00.985Z,11.20
2018-06-03T18:24:29.798Z,11.10
2018-06-03T18:26:58.549Z,11.70
2018-06-03T18:29:27.199Z,11.97
2018-06-03T18:31:55.992Z,10.47
2018-06-03T18:34:24.863Z,13.07
2018-06-03T18:36:53.721Z,14.87
2018-06-03T18:39:22.516Z,10.90
2018-06-03T18:41:51.374Z,10.83
2018-06-03T18:44:20.128Z,10.50
2018-06-03T18:46:49.363Z,10.63
2018-06-03T18:49:18.162Z,10.50
2018-06-03T18:51:46.910Z,10.53
2018-06-03T18:54:15.661Z,10.87
2018-06-03T18:56:44.459Z,11.70
2018-06-03T18:59:13.277Z,10.23
2018-06-03T19:01:41.966Z,10.63
2018-06-03T19:04:10.838Z,10.80
2018-06-03T19:06:39.628Z,11.63
2018-06-03T19:09:08.406Z,10.80
2018-06-03T19:11:37.144Z,11.37
2018-06-03T19:14:06.444Z,11.87
2018-06-03T19:16:35.282Z,11.70
2018-06-03T19:19:04.049Z,11.13
2018-06-03T19:21:32.831Z,11.73
2018-06-03T19:24:01.411Z,12.47
2018-06-03T19:26:32.552Z,11.07
2018-06-03T19:29:01.337Z,12.33
2018-06-03T19:31:30.528Z,12.50
2018-06-03T19:33:59.224Z,12.47
2018-06-03T19:36:28.183Z,12.27
2018-06-03T19:38:56.909Z,12.40
2018-06-03T19:41:26.634Z,12.50
2018-06-03T19:43:55.982Z,11.80
2018-06-03T19:46:24.901Z,11.83
2018-06-03T19:48:53.643Z,13.57
2018-06-03T19:51:22.477Z,13.30
2018-06-03T19:53:51.333Z,11.40
2018-06-03T19:56:20.104Z,12.07
2018-06-03T19:58:48.970Z,11.93
2018-06-03T20:01:17.988Z,12.07
2018-06-03T20:03:46.697Z,11.43
2018-06-03T20:06:15.491Z,12.63
2018-06-03T20:08:44.877Z,12.13
2018-06-03T20:11:13.641Z,13.20
2018-06-03T20:13:42.651Z,12.43
2018-06-03T20:16:11.401Z,13.17
2018-06-03T20:18:40.011Z,14.87
2018-06-03T20:21:08.462Z,13.33
2018-06-03T20:23:37.200Z,12.97
2018-06-03T20:26:05.999Z,14.27
2018-06-03T20:28:34.921Z,13.53
2018-06-03T20:31:03.739Z,13.33
2018-06-03T20:33:32.666Z,13.03
2018-06-03T20:36:01.258Z,14.40
2018-06-03T20:38:29.902Z,12.90
2018-06-03T20:40:58.696Z,13.27
2018-06-03T20:43:27.443Z,13.67
2018-06-03T20:45:56.487Z,14.40
2018-06-03T20:48:25.267Z,14.80
2018-06-03T20:50:54.056Z,15.20
2018-06-03T20:53:22.832Z,15.10
2018-06-03T20:55:51.644Z,15.70
2018-06-03T20:58:20.553Z,15.40
2018-06-03T21:00:49.348Z,15.63
2018-06-03T21:03:18.094Z,15.17
2018-06-03T21:05:46.677Z,23.17
2018-06-03T21:08:15.325Z,18.13
2018-06-03T21:10:44.104Z,17.97
2018-06-03T21:13:12.872Z,16.23
2018-06-03T21:15:41.670Z,16.30
2018-06-03T21:18:10.430Z,16.73
2018-06-03T21:20:39.210Z,16.27
2018-06-03T21:23:08.131Z,16.20
2018-06-03T21:25:36.922Z,16.00
2018-06-03T21:28:05.677Z,15.67
2018-06-03T21:30:34.450Z,15.77
2018-06-03T21:33:03.240Z,15.53
2018-06-03T21:35:31.977Z,13.97
2018-06-03T21:38:00.773Z,15.37
2018-06-03T21:40:29.554Z,15.33
2018-06-03T21:42:59.340Z,15.37
2018-06-03T21:45:28.247Z,15.30
2018-06-03T21:47:57.033Z,15.80
2018-06-03T21:50:26.003Z,14.80
2018-06-03T21:52:54.587Z,15.73
2018-06-03T21:55:23.201Z,15.30
2018-06-03T21:57:52.072Z,15.30
2018-06-03T22:00:20.858Z,15.40
2018-06-03T22:02:49.640Z,16.70
2018-06-03T22:05:18.457Z,15.23
2018-06-03T22:07:47.922Z,15.47
2018-06-03T22:10:16.483Z,15.67
2018-06-03T22:12:45.105Z,15.43
2018-06-03T22:15:13.882Z,15.97
2018-06-03T22:17:42.597Z,16.53
2018-06-03T22:20:11.383Z,16.30
2018-06-03T22:22:40.151Z,16.03
2018-06-03T22:25:08.934Z,14.73
2018-06-03T22:27:37.675Z,14.77
2018-06-03T22:30:06.486Z,15.37
2018-06-03T22:32:35.254Z,23.00
2018-06-03T22:35:04.039Z,17.80
2018-06-03T22:37:32.846Z,18.63
2018-06-03T22:40:01.714Z,18.17
2018-06-03T22:42:30.523Z,20.83
2018-06-03T22:44:59.416Z,17.33
2018-06-03T22:47:28.178Z,14.13
2018-06-03T22:49:56.946Z,15.13
2018-06-03T22:52:25.723Z,14.30
2018-06-03T22:54:54.509Z,16.17
2018-06-03T22:57:37.468Z,16.70
2018-06-03T23:00:06.128Z,17.37
2018-06-03T23:02:34.644Z,16.00
2018-06-03T23:05:03.425Z,15.03
2018-06-03T23:07:32.172Z,15.20
2018-06-03T23:10:00.783Z,15.00
2018-06-03T23:12:29.463Z,15.63
2018-06-03T23:14:58.227Z,15.13
2018-06-03T23:17:26.822Z,15.43
2018-06-03T23:19:55.478Z,16.20
2018-06-03T23:22:24.260Z,15.33
2018-06-03T23:24:53.083Z,15.63
2018-06-03T23:27:21.679Z,15.87
2018-06-03T23:29:50.125Z,18.77
2018-06-03T23:32:18.775Z,16.60
2018-06-03T23:34:47.507Z,16.53
2018-06-03T23:37:16.296Z,16.37
2018-06-03T23:39:45.064Z,18.00
2018-06-03T23:42:13.857Z,18.37
2018-06-03T23:44:42.648Z,16.23
2018-06-03T23:47:11.406Z,16.10
2018-06-03T23:49:40.202Z,16.13
2018-06-03T23:52:08.957Z,17.47
2018-06-03T23:54:37.720Z,16.07
2018-06-03T23:57:06.489Z,16.90
2018-06-03T23:59:35.221Z,16.87
